createdAt,value
2017-02-04T00:00:44.567Z,90.71
2017-02-04T00:01:48.827Z,91.09
2017-02-04T00:02:54.996Z,90.81
2017-02-04T00:04:01.168Z,90.62
2017-02-04T00:05:06.343Z,90.33
2017-02-04T00:06:12.621Z,90.43
2017-02-04T00:07:17.834Z,90.05
2017-02-04T00:08:22.045Z,90.33
2017-02-04T00:09:27.245Z,90.14
2017-02-04T00:10:32.451Z,90.43
2017-02-04T00:11:38.639Z,90.33
2017-02-04T00:12:44.815Z,89.86
2017-02-04T00:13:49.061Z,89.48
2017-02-04T00:14:55.334Z,89.48
2017-02-04T00:16:00.565Z,89.48
2017-02-04T00:17:05.711Z,89.29
2017-02-04T00:18:10.880Z,89.48
2017-02-04T00:19:17.036Z,90.05
2017-02-04T00:20:21.296Z,89.48
2017-02-04T00:21:26.509Z,89.48
2017-02-04T00:22:30.804Z,89.58
2017-02-04T00:23:34.926Z,89.76
2017-02-04T00:24:41.102Z,89.58
2017-02-04T00:25:47.314Z,89.39
2017-02-04T00:26:50.665Z,89.29
2017-02-04T00:27:52.955Z,89.58
2017-02-04T00:28:58.109Z,89.33
2017-02-04T00:30:02.344Z,89.43
2017-02-04T00:31:06.572Z,88.95
2017-02-04T00:32:12.743Z,88.95
2017-02-04T00:33:18.005Z,88.86
2017-02-04T00:34:23.205Z,88.48
2017-02-04T00:35:28.410Z,88.57
2017-02-04T00:36:33.607Z,88.2
2017-02-04T00:37:39.787Z,87.72
2017-02-04T00:38:46.004Z,87.72
2017-02-04T00:39:52.141Z,87.72
2017-02-04T00:40:56.365Z,87.72
2017-02-04T00:42:02.561Z,87.72
2017-02-04T00:43:08.735Z,87.24
2017-02-04T00:44:12.968Z,87.53
2017-02-04T00:45:18.171Z,86.91
2017-02-04T00:46:24.341Z,87.19
2017-02-04T00:47:30.505Z,87.01
2017-02-04T00:48:34.746Z,87.29
2017-02-04T00:49:39.913Z,87.19
2017-02-04T00:50:46.098Z,87.01
2017-02-04T00:51:52.270Z,87.19
2017-02-04T00:52:58.549Z,86.43
2017-02-04T00:54:04.731Z,86.43
2017-02-04T00:55:08.973Z,86.63
2017-02-04T00:56:15.160Z,86.24
2017-02-04T00:57:20.347Z,86.24
2017-02-04T00:58:25.552Z,86.34
2017-02-04T00:59:31.733Z,85.68
2017-02-04T01:00:36.942Z,86.15
2017-02-04T01:01:42.116Z,85.96
2017-02-04T01:02:47.322Z,85.86
2017-02-04T01:03:52.535Z,85.68
2017-02-04T01:04:58.699Z,85.96
2017-02-04T01:06:03.954Z,85.49
2017-02-04T01:07:10.150Z,85.11
2017-02-04T01:08:13.412Z,85.49
2017-02-04T01:09:19.694Z,85.49
2017-02-04T01:10:24.865Z,85.39
2017-02-04T01:11:29.106Z,85.77
2017-02-04T01:12:33.337Z,85.49
2017-02-04T01:13:39.496Z,85.39
2017-02-04T01:14:45.661Z,85.43
2017-02-04T01:15:51.823Z,85.15
2017-02-04T01:16:57.988Z,85.24
2017-02-04T01:18:03.190Z,85.15
2017-02-04T01:19:08.386Z,85.34
2017-02-04T01:20:13.601Z,85.05
2017-02-04T01:21:19.819Z,85.34
2017-02-04T01:22:25.040Z,85.05
2017-02-04T01:23:31.221Z,85.05
2017-02-04T01:24:37.364Z,84.95
2017-02-04T01:25:43.539Z,84.86
2017-02-04T01:26:48.735Z,84.95
2017-02-04T01:27:54.930Z,84.95
2017-02-04T01:29:01.084Z,84.39
2017-02-04T01:30:05.319Z,84.86
2017-02-04T01:31:09.581Z,84.58
2017-02-04T01:32:15.717Z,84.39
2017-02-04T01:33:21.890Z,84.48
2017-02-04T01:34:28.065Z,84.2
2017-02-04T01:35:33.268Z,83.82
2017-02-04T01:36:39.427Z,83.91
2017-02-04T01:37:45.596Z,84.1
2017-02-04T01:38:49.836Z,84.2
2017-02-04T01:39:56.045Z,84.1
2017-02-04T01:41:02.173Z,84.2
2017-02-04T01:42:08.341Z,84.1
2017-02-04T01:43:14.527Z,83.34
2017-02-04T01:44:19.698Z,83.62
2017-02-04T01:45:25.877Z,83.91
2017-02-04T01:46:32.051Z,83.62
2017-02-04T01:47:37.261Z,83.34
2017-02-04T01:48:41.495Z,83.53
2017-02-04T01:49:45.715Z,83.53
2017-02-04T01:50:51.886Z,83.72
2017-02-04T01:51:58.159Z,83.53
2017-02-04T01:53:04.331Z,83.25
2017-02-04T01:54:10.496Z,83.62
2017-02-04T01:55:15.671Z,83.44
2017-02-04T01:56:20.880Z,83.15
2017-02-04T01:57:25.122Z,83.15
2017-02-04T01:58:31.285Z,82.87
2017-02-04T01:59:36.534Z,83.53
2017-02-04T02:00:41.809Z,83.53
2017-02-04T02:01:47.025Z,83.06
2017-02-04T02:02:51.248Z,83.44
2017-02-04T02:03:57.414Z,83.15
2017-02-04T02:05:03.584Z,83.53
2017-02-04T02:06:09.749Z,83.44
2017-02-04T02:07:14.966Z,84.29
2017-02-04T02:08:21.130Z,84.77
2017-02-04T02:09:27.305Z,85.53
2017-02-04T02:10:32.487Z,85.24
2017-02-04T02:11:38.655Z,85.53
2017-02-04T02:12:43.952Z,85.15
2017-02-04T02:13:50.113Z,85.24
2017-02-04T02:14:56.309Z,85.15
2017-02-04T02:16:01.481Z,85.72
2017-02-04T02:17:06.687Z,85.24
2017-02-04T02:18:11.855Z,85.43
2017-02-04T02:19:17.051Z,85.53
2017-02-04T02:20:21.326Z,85.43
2017-02-04T02:21:25.506Z,85.24
2017-02-04T02:22:31.707Z,85.81
2017-02-04T02:23:36.885Z,85.53
2017-02-04T02:24:41.165Z,85.15
2017-02-04T02:25:47.337Z,85.53
2017-02-04T02:26:53.559Z,85.05
2017-02-04T02:27:58.703Z,85.05
2017-02-04T02:29:03.921Z,85.15
2017-02-04T02:30:09.143Z,84.95
2017-02-04T02:31:14.314Z,84.39
2017-02-04T02:32:20.480Z,84.48
2017-02-04T02:33:25.786Z,84.48
2017-02-04T02:34:31.085Z,84.29
2017-02-04T02:35:37.250Z,83.91
2017-02-04T02:36:43.415Z,83.82
2017-02-04T02:37:48.617Z,84.01
2017-02-04T02:38:52.859Z,83.91
2017-02-04T02:39:58.036Z,84.01
2017-02-04T02:41:03.434Z,83.72
2017-02-04T02:42:08.674Z,83.34
2017-02-04T02:43:13.835Z,83.44
2017-02-04T02:44:19.994Z,83.72
2017-02-04T02:45:26.284Z,83.34
2017-02-04T02:46:31.479Z,83.53
2017-02-04T02:47:36.887Z,84.01
2017-02-04T02:48:43.070Z,83.72
2017-02-04T02:49:48.267Z,84.01
2017-02-04T02:50:53.583Z,83.91
2017-02-04T02:51:57.789Z,83.62
2017-02-04T02:53:02.989Z,84.01
2017-02-04T02:54:09.192Z,83.91
2017-02-04T02:55:13.395Z,84.39
2017-02-04T02:56:19.566Z,85.15
2017-02-04T02:57:23.800Z,85.53
2017-02-04T02:58:29.000Z,85.91
2017-02-04T02:59:35.168Z,86.19
2017-02-04T03:00:39.378Z,86.29
2017-02-04T03:01:44.630Z,86.86
2017-02-04T03:02:48.875Z,86.95
2017-02-04T03:03:54.079Z,87.24
2017-02-04T03:05:00.235Z,87.24
2017-02-04T03:06:05.431Z,87.52
2017-02-04T03:07:10.631Z,87.34
2017-02-04T03:08:15.824Z,87.05
2017-02-04T03:09:21.051Z,87.24
2017-02-04T03:10:27.223Z,87.9
2017-02-04T03:11:32.431Z,88
2017-02-04T03:12:36.637Z,87.81
2017-02-04T03:13:41.852Z,87.9
2017-02-04T03:14:48.027Z,88.28
2017-02-04T03:15:53.225Z,88.19
2017-02-04T03:16:58.423Z,88.57
2017-02-04T03:18:03.656Z,88.67
2017-02-04T03:19:09.796Z,88.57
2017-02-04T03:20:15.027Z,89.04
2017-02-04T03:21:20.240Z,88.47
2017-02-04T03:22:24.483Z,88.47
2017-02-04T03:23:30.659Z,88.47
2017-02-04T03:24:36.821Z,88.67
2017-02-04T03:25:42.030Z,88.09
2017-02-04T03:26:48.305Z,88.19
2017-02-04T03:27:53.509Z,88.38
2017-02-04T03:28:59.680Z,88.28
2017-02-04T03:30:04.882Z,88.57
2017-02-04T03:31:10.093Z,88.85
2017-02-04T03:32:16.255Z,89.04
2017-02-04T03:33:21.466Z,89.52
2017-02-04T03:34:25.670Z,89.33
2017-02-04T03:35:30.928Z,89.14
2017-02-04T03:36:35.139Z,89.52
2017-02-04T03:37:39.388Z,90.09
2017-02-04T03:38:45.508Z,90.09
2017-02-04T03:39:49.709Z,90.09
2017-02-04T03:40:55.905Z,90.19
2017-02-04T03:42:01.077Z,90.56
2017-02-04T03:43:06.277Z,91.23
2017-02-04T03:44:11.480Z,90.85
2017-02-04T03:45:16.664Z,91.89
2017-02-04T03:46:21.859Z,91.61
2017-02-04T03:47:27.063Z,91.71
2017-02-04T03:48:32.270Z,91.61
2017-02-04T03:49:38.436Z,91.89
2017-02-04T03:50:43.626Z,92.27
2017-02-04T03:51:48.911Z,92.32
2017-02-04T03:52:54.050Z,92.61
2017-02-04T03:53:59.245Z,92.32
2017-02-04T03:55:04.438Z,92.32
2017-02-04T03:56:10.603Z,93.08
2017-02-04T03:57:16.775Z,92.8
2017-02-04T03:58:22.939Z,93.18
2017-02-04T03:59:29.114Z,93.7
2017-02-04T04:00:35.286Z,93.46
2017-02-04T04:01:41.468Z,93.65
2017-02-04T04:02:46.656Z,93.6
2017-02-04T04:03:51.829Z,94.23
2017-02-04T04:04:58.088Z,93.94
2017-02-04T04:06:04.247Z,94.23
2017-02-04T04:07:08.576Z,93.84
2017-02-04T04:08:13.813Z,94.42
2017-02-04T04:09:17.105Z,94.13
2017-02-04T04:10:21.312Z,94.13
2017-02-04T04:11:27.464Z,94.03
2017-02-04T04:12:33.659Z,94.51
2017-02-04T04:13:38.872Z,94.6
2017-02-04T04:14:45.122Z,94.89
2017-02-04T04:15:51.304Z,94.51
2017-02-04T04:16:56.516Z,94.7
2017-02-04T04:18:02.678Z,94.7
2017-02-04T04:19:06.909Z,94.32
2017-02-04T04:20:13.071Z,94.32
2017-02-04T04:21:19.395Z,94.32
2017-02-04T04:22:24.731Z,94.51
2017-02-04T04:23:28.943Z,94.7
2017-02-04T04:24:34.148Z,94.79
2017-02-04T04:25:40.318Z,94.6
2017-02-04T04:26:45.510Z,94.42
2017-02-04T04:27:49.710Z,94.51
2017-02-04T04:28:54.938Z,94.7
2017-02-04T04:29:59.152Z,94.79
2017-02-04T04:31:04.355Z,94.42
2017-02-04T04:32:10.521Z,94.51
2017-02-04T04:33:15.722Z,94.32
2017-02-04T04:34:21.905Z,94.13
2017-02-04T04:35:28.107Z,94.42
2017-02-04T04:36:34.247Z,94.7
2017-02-04T04:37:37.502Z,94.03
2017-02-04T04:38:43.670Z,93.94
2017-02-04T04:39:48.871Z,94.13
2017-02-04T04:40:54.078Z,94.23
2017-02-04T04:41:59.273Z,94.23
2017-02-04T04:43:04.472Z,94.23
2017-02-04T04:44:09.672Z,93.94
2017-02-04T04:45:15.846Z,94.23
2017-02-04T04:46:21.072Z,94.03
2017-02-04T04:47:26.271Z,94.23
2017-02-04T04:48:31.483Z,94.03
2017-02-04T04:49:37.650Z,94.23
2017-02-04T04:50:43.808Z,94.89
2017-02-04T04:51:49.009Z,94.42
2017-02-04T04:52:55.183Z,94.32
2017-02-04T04:53:59.385Z,94.13
2017-02-04T04:55:02.646Z,94.13
2017-02-04T04:56:08.866Z,94.23
2017-02-04T04:57:14.101Z,94.6
2017-02-04T04:58:20.271Z,94.6
2017-02-04T04:59:26.444Z,94.03
2017-02-04T05:00:31.641Z,94.13
2017-02-04T05:01:35.848Z,94.13
2017-02-04T05:02:41.043Z,94.03
2017-02-04T05:03:45.347Z,94.13
2017-02-04T05:04:50.496Z,93.65
2017-02-04T05:05:56.673Z,93.56
2017-02-04T05:07:01.874Z,93.46
2017-02-04T05:08:06.186Z,93.27
2017-02-04T05:09:09.495Z,93.27
2017-02-04T05:10:14.662Z,93.27
2017-02-04T05:11:18.979Z,93.46
2017-02-04T05:12:22.162Z,93.46
2017-02-04T05:13:28.340Z,93.46
2017-02-04T05:14:33.571Z,93.46
2017-02-04T05:15:39.745Z,93.37
2017-02-04T05:16:44.905Z,93.37
2017-02-04T05:17:50.100Z,93.37
2017-02-04T05:18:55.277Z,93.27
2017-02-04T05:20:00.471Z,93.46
2017-02-04T05:21:05.678Z,93.56
2017-02-04T05:22:10.850Z,93.46
2017-02-04T05:23:17.097Z,93.08
2017-02-04T05:24:21.220Z,93.37
2017-02-04T05:25:26.393Z,93.27
2017-02-04T05:26:30.627Z,93.27
2017-02-04T05:27:36.800Z,93.18
2017-02-04T05:28:43.019Z,93.46
2017-02-04T05:29:49.207Z,93.46
2017-02-04T05:30:53.403Z,93.27
2017-02-04T05:31:58.610Z,93.27
2017-02-04T05:33:03.782Z,93.65
2017-02-04T05:34:08.984Z,93.75
2017-02-04T05:35:15.199Z,93.94
2017-02-04T05:36:20.363Z,93.46
2017-02-04T05:37:24.601Z,94.23
2017-02-04T05:38:30.988Z,94.13
2017-02-04T05:39:36.183Z,93.75
2017-02-04T05:40:41.376Z,93.56
2017-02-04T05:41:46.588Z,93.37
2017-02-04T05:42:52.766Z,93.27
2017-02-04T05:43:58.937Z,93.84
2017-02-04T05:45:05.112Z,92.8
2017-02-04T05:46:10.283Z,93.27
2017-02-04T05:47:14.514Z,92.8
2017-02-04T05:48:19.786Z,92.51
2017-02-04T05:49:24.982Z,92.23
2017-02-04T05:50:30.181Z,92.42
2017-02-04T05:51:34.418Z,92.42
2017-02-04T05:52:40.630Z,91.75
2017-02-04T05:53:46.760Z,91.28
2017-02-04T05:54:52.948Z,91.38
2017-02-04T05:55:57.154Z,91.75
2017-02-04T05:57:03.325Z,91.75
2017-02-04T05:58:07.551Z,92.28
2017-02-04T05:59:12.756Z,92.32
2017-02-04T06:00:17.970Z,92.18
2017-02-04T06:01:24.173Z,92.37
2017-02-04T06:02:29.314Z,92.75
2017-02-04T06:03:35.504Z,92.75
2017-02-04T06:04:38.758Z,92.47
2017-02-04T06:05:43.955Z,93.13
2017-02-04T06:06:50.120Z,92.94
2017-02-04T06:07:54.328Z,93.13
2017-02-04T06:09:00.499Z,93.04
2017-02-04T06:10:04.726Z,93.32
2017-02-04T06:11:10.892Z,93.41
2017-02-04T06:12:16.085Z,93.41
2017-02-04T06:13:21.258Z,93.89
2017-02-04T06:14:26.469Z,93.8
2017-02-04T06:15:31.659Z,93.89
2017-02-04T06:16:35.857Z,93.89
2017-02-04T06:17:41.059Z,94.56
2017-02-04T06:18:45.261Z,94.74
2017-02-04T06:19:49.497Z,94.32
2017-02-04T06:20:54.692Z,94.84
2017-02-04T06:22:00.862Z,94.74
2017-02-04T06:23:07.029Z,94.51
2017-02-04T06:24:13.204Z,95.12
2017-02-04T06:25:17.411Z,95.07
2017-02-04T06:26:23.579Z,94.98
2017-02-04T06:27:28.789Z,94.89
2017-02-04T06:28:33.977Z,94.98
2017-02-04T06:29:40.159Z,94.7
2017-02-04T06:30:45.354Z,94.89
2017-02-04T06:31:49.643Z,94.89
2017-02-04T06:32:53.882Z,94.79
2017-02-04T06:33:58.142Z,95.36
2017-02-04T06:35:03.333Z,95.65
2017-02-04T06:36:09.507Z,94.89
2017-02-04T06:37:13.730Z,95.55
2017-02-04T06:38:17.976Z,95.17
2017-02-04T06:39:23.179Z,95.27
2017-02-04T06:40:27.392Z,95.84
2017-02-04T06:41:32.581Z,95.74
2017-02-04T06:42:38.760Z,95.46
2017-02-04T06:43:44.926Z,96.03
2017-02-04T06:44:51.144Z,95.46
2017-02-04T06:45:57.287Z,96.03
2017-02-04T06:47:01.633Z,96.59
2017-02-04T06:48:06.805Z,96.03
2017-02-04T06:49:12.954Z,96.31
2017-02-04T06:50:18.124Z,96.41
2017-02-04T06:51:23.316Z,96.17
2017-02-04T06:52:29.486Z,96.73
2017-02-04T06:53:35.765Z,96.73
2017-02-04T06:54:38.897Z,96.73
2017-02-04T06:55:44.099Z,96.92
2017-02-04T06:56:49.294Z,96.83
2017-02-04T06:57:55.463Z,97.21
2017-02-04T06:59:01.709Z,97.02
2017-02-04T07:00:05.951Z,97.31
2017-02-04T07:01:12.110Z,97.21
2017-02-04T07:02:18.282Z,97.02
2017-02-04T07:03:23.483Z,96.83
2017-02-04T07:04:29.657Z,97.02
2017-02-04T07:05:35.829Z,97.02
2017-02-04T07:06:41.040Z,97.31
2017-02-04T07:07:47.210Z,97.21
2017-02-04T07:08:52.415Z,96.92
2017-02-04T07:09:56.646Z,97.31
2017-02-04T07:11:01.843Z,96.92
2017-02-04T07:12:06.044Z,97.5
2017-02-04T07:13:12.208Z,97.12
2017-02-04T07:14:16.417Z,97.21
2017-02-04T07:15:22.630Z,97.88
2017-02-04T07:16:28.789Z,97.78
2017-02-04T07:17:33.988Z,97.12
2017-02-04T07:18:40.169Z,97.69
2017-02-04T07:19:46.334Z,97.4
2017-02-04T07:20:50.581Z,98.25
2017-02-04T07:21:55.845Z,97.88
2017-02-04T07:23:02.023Z,97.97
2017-02-04T07:24:08.259Z,97.97
2017-02-04T07:25:13.443Z,97.78
2017-02-04T07:26:17.712Z,97.69
2017-02-04T07:27:20.946Z,97.97
2017-02-04T07:28:26.147Z,98.16
2017-02-04T07:29:31.358Z,98.07
2017-02-04T07:30:35.564Z,97.97
2017-02-04T07:31:40.758Z,97.88
2017-02-04T07:32:47.055Z,97.88
2017-02-04T07:33:53.191Z,98.07
2017-02-04T07:34:59.355Z,97.88
2017-02-04T07:36:05.520Z,97.31
2017-02-04T07:37:09.735Z,97.5
2017-02-04T07:38:14.932Z,97.21
2017-02-04T07:39:21.123Z,97.26
2017-02-04T07:40:23.418Z,97.26
2017-02-04T07:41:28.609Z,97.17
2017-02-04T07:42:34.809Z,96.97
2017-02-04T07:43:40.995Z,96.97
2017-02-04T07:44:47.147Z,97.5
2017-02-04T07:45:52.354Z,96.45
2017-02-04T07:46:58.522Z,96.31
2017-02-04T07:48:03.731Z,94.7
2017-02-04T07:49:09.893Z,92.56
2017-02-04T07:50:14.143Z,89.75
2017-02-04T07:51:20.298Z,85.76
2017-02-04T07:52:25.562Z,83.62
2017-02-04T07:53:31.725Z,81.62
2017-02-04T07:54:36.928Z,79.75
2017-02-04T07:55:42.168Z,78.42
2017-02-04T07:56:48.335Z,76.75
2017-02-04T07:57:54.500Z,76.65
2017-02-04T07:58:59.725Z,76.12
2017-02-04T08:00:05.891Z,73.83
2017-02-04T08:01:12.069Z,72.82
2017-02-04T08:02:16.331Z,71.48
2017-02-04T08:03:22.508Z,71.04
2017-02-04T08:04:28.766Z,70.19
2017-02-04T08:05:33.969Z,68.98
2017-02-04T08:06:39.268Z,67.36
2017-02-04T08:07:44.464Z,66.92
2017-02-04T08:08:49.636Z,66
2017-02-04T08:09:54.852Z,63.6
2017-02-04T08:11:01.030Z,62.65
2017-02-04T08:12:06.250Z,62.84
2017-02-04T08:13:12.419Z,62.18
2017-02-04T08:14:18.589Z,62.08
2017-02-04T08:15:23.775Z,61.32
2017-02-04T08:16:29.958Z,61.98
2017-02-04T08:17:34.203Z,61.72
2017-02-04T08:18:40.482Z,60.3
2017-02-04T08:19:44.739Z,61.16
2017-02-04T08:20:51.016Z,60.3
2017-02-04T08:21:56.215Z,59.37
2017-02-04T08:22:59.483Z,58.89
2017-02-04T08:24:03.717Z,57.93
2017-02-04T08:25:08.900Z,56.98
2017-02-04T08:26:14.201Z,57.93
2017-02-04T08:27:20.367Z,57.87
2017-02-04T08:28:24.625Z,57.68
2017-02-04T08:29:30.815Z,55.02
2017-02-04T08:30:36.039Z,54.43
2017-02-04T08:31:41.214Z,55.31
2017-02-04T08:32:47.405Z,53.91
2017-02-04T08:33:53.583Z,52.95
2017-02-04T08:34:57.879Z,52.01
2017-02-04T08:36:04.060Z,51.08
2017-02-04T08:37:10.245Z,49.26
2017-02-04T08:38:16.457Z,47.82
2017-02-04T08:39:20.677Z,49.16
2017-02-04T08:40:26.865Z,48.88
2017-02-04T08:41:31.128Z,49.05
2017-02-04T08:42:37.490Z,48.64
2017-02-04T08:43:43.694Z,51.13
2017-02-04T08:44:48.905Z,50.36
2017-02-04T08:45:55.079Z,49.88
2017-02-04T08:47:01.247Z,50.17
2017-02-04T08:48:07.434Z,51.22
2017-02-04T08:49:12.671Z,49.02
2017-02-04T08:50:17.864Z,49.88
2017-02-04T08:51:23.099Z,49.71
2017-02-04T08:52:29.297Z,48.38
2017-02-04T08:53:34.473Z,47.44
2017-02-04T08:54:39.687Z,47.06
2017-02-04T08:55:44.893Z,46.22
2017-02-04T08:56:50.119Z,45.83
2017-02-04T08:57:55.330Z,45.26
2017-02-04T08:59:00.539Z,45.64
2017-02-04T09:00:06.748Z,45.9
2017-02-04T09:01:10.937Z,45.07
2017-02-04T09:02:16.193Z,44.95
2017-02-04T09:03:21.379Z,45.52
2017-02-04T09:04:27.577Z,45.9
2017-02-04T09:05:32.757Z,45.16
2017-02-04T09:06:37.966Z,43.84
2017-02-04T09:07:41.250Z,43.19
2017-02-04T09:08:45.494Z,42.23
2017-02-04T09:09:51.670Z,41.54
2017-02-04T09:10:56.898Z,42.86
2017-02-04T09:12:03.076Z,43.34
2017-02-04T09:13:09.251Z,43.44
2017-02-04T09:14:12.530Z,43.32
2017-02-04T09:15:16.844Z,44.66
2017-02-04T09:16:23.146Z,45.12
2017-02-04T09:17:29.328Z,46.25
2017-02-04T09:18:35.562Z,46.82
2017-02-04T09:19:40.730Z,47.37
2017-02-04T09:20:45.947Z,48.88
2017-02-04T09:21:52.136Z,49.93
2017-02-04T09:22:58.309Z,49.64
2017-02-04T09:24:04.670Z,51.53
2017-02-04T09:25:09.845Z,52.65
2017-02-04T09:26:16.024Z,53.29
2017-02-04T09:27:20.263Z,54.15
2017-02-04T09:28:25.472Z,54.82
2017-02-04T09:29:30.688Z,54.99
2017-02-04T09:30:37.095Z,55.55
2017-02-04T09:31:43.262Z,56.13
2017-02-04T09:32:49.573Z,56.32
2017-02-04T09:33:54.798Z,57.53
2017-02-04T09:35:00.975Z,57.46
2017-02-04T09:36:07.158Z,56.8
2017-02-04T09:37:13.324Z,55.75
2017-02-04T09:38:19.513Z,55.75
2017-02-04T09:39:25.686Z,56.32
2017-02-04T09:40:30.912Z,56.04
2017-02-04T09:41:37.084Z,55.65
2017-02-04T09:42:43.381Z,55.2
2017-02-04T09:43:48.510Z,54.72
2017-02-04T09:44:54.693Z,55.2
2017-02-04T09:45:59.904Z,54.89
2017-02-04T09:47:06.082Z,56.13
2017-02-04T09:48:11.288Z,55.46
2017-02-04T09:49:17.495Z,56.13
2017-02-04T09:50:23.667Z,56.23
2017-02-04T09:51:28.843Z,56.96
2017-02-04T09:52:35.014Z,57.15
2017-02-04T09:53:40.203Z,57.72
2017-02-04T09:54:45.643Z,58.2
2017-02-04T09:55:50.899Z,59.12
2017-02-04T09:56:56.075Z,59.03
2017-02-04T09:58:02.249Z,59.41
2017-02-04T09:59:07.470Z,60.17
2017-02-04T10:00:13.643Z,59.79
2017-02-04T10:01:18.856Z,59.89
2017-02-04T10:02:25.114Z,60.27
2017-02-04T10:03:30.254Z,61.22
2017-02-04T10:04:36.435Z,61.57
2017-02-04T10:05:42.610Z,60.46
2017-02-04T10:06:48.868Z,61.19
2017-02-04T10:07:55.036Z,61.96
2017-02-04T10:09:00.249Z,61.7
2017-02-04T10:10:06.417Z,61.32
2017-02-04T10:11:11.719Z,60.55
2017-02-04T10:12:17.849Z,60.08
2017-02-04T10:13:23.057Z,59.79
2017-02-04T10:14:27.314Z,59.82
2017-02-04T10:15:33.536Z,59.73
2017-02-04T10:16:38.737Z,59.25
2017-02-04T10:17:44.924Z,58.97
2017-02-04T10:18:50.231Z,59.06
2017-02-04T10:19:53.478Z,59.12
2017-02-04T10:20:58.684Z,59.99
2017-02-04T10:22:04.871Z,60.46
2017-02-04T10:23:11.052Z,60.27
2017-02-04T10:24:16.260Z,60.46
2017-02-04T10:25:22.430Z,60.55
2017-02-04T10:26:27.635Z,60.36
2017-02-04T10:27:33.805Z,61.13
2017-02-04T10:28:37.055Z,61.13
2017-02-04T10:29:42.370Z,60.55
2017-02-04T10:30:48.552Z,60.17
2017-02-04T10:31:54.734Z,60.02
2017-02-04T10:33:00.917Z,59.16
2017-02-04T10:34:06.119Z,57.46
2017-02-04T10:35:12.301Z,56.89
2017-02-04T10:36:17.497Z,56.13
2017-02-04T10:37:22.709Z,55.3
2017-02-04T10:38:27.961Z,55.3
2017-02-04T10:39:34.147Z,55.36
2017-02-04T10:40:40.326Z,56.23
2017-02-04T10:41:45.506Z,57.37
2017-02-04T10:42:51.692Z,57.46
2017-02-04T10:43:55.988Z,57.09
2017-02-04T10:45:02.291Z,57.15
2017-02-04T10:46:07.520Z,57.65
2017-02-04T10:47:13.807Z,57.37
2017-02-04T10:48:18.131Z,57.18
2017-02-04T10:49:22.338Z,56.99
2017-02-04T10:50:26.577Z,57.34
2017-02-04T10:51:32.821Z,57.72
2017-02-04T10:52:38.992Z,58.2
2017-02-04T10:53:45.176Z,58.75
2017-02-04T10:54:50.392Z,59.7
2017-02-04T10:55:55.675Z,59.89
2017-02-04T10:58:06.091Z,60.55
2017-02-04T10:59:11.322Z,60.65
2017-02-04T11:00:17.491Z,60.65
2017-02-04T11:01:23.667Z,61.22
2017-02-04T11:02:28.848Z,60.27
2017-02-04T11:03:34.072Z,61.38
2017-02-04T11:04:40.242Z,61.1
2017-02-04T11:05:46.522Z,61.1
2017-02-04T11:06:50.775Z,61.57
2017-02-04T11:07:55.997Z,62.3
2017-02-04T11:08:59.425Z,62.97
2017-02-04T11:10:05.599Z,63.26
2017-02-04T11:11:10.810Z,63.54
2017-02-04T11:12:16.975Z,64.4
2017-02-04T11:13:23.149Z,64.21
2017-02-04T11:14:27.409Z,64.02
2017-02-04T11:15:32.617Z,64.59
2017-02-04T11:16:38.828Z,65.16
2017-02-04T11:17:45.014Z,64.78
2017-02-04T11:18:51.268Z,64.87
2017-02-04T11:19:57.438Z,65.16
2017-02-04T11:21:01.684Z,64.87
2017-02-04T11:22:07.848Z,65.36
2017-02-04T11:23:12.140Z,65.64
2017-02-04T11:24:16.342Z,66.21
2017-02-04T11:25:22.516Z,66.11
2017-02-04T11:26:27.754Z,65.36
2017-02-04T11:27:32.906Z,64.87
2017-02-04T11:28:39.081Z,65.55
2017-02-04T11:29:44.287Z,65.83
2017-02-04T11:30:50.471Z,66.18
2017-02-04T11:31:56.639Z,66.18
2017-02-04T11:32:59.884Z,66.27
2017-02-04T11:34:06.091Z,66.18
2017-02-04T11:35:12.239Z,66.27
2017-02-04T11:36:17.510Z,66.66
2017-02-04T11:37:23.651Z,66.85
2017-02-04T11:38:27.987Z,66.75
2017-02-04T11:39:33.189Z,67.22
2017-02-04T11:40:39.364Z,67.7
2017-02-04T11:41:45.537Z,67.99
2017-02-04T11:42:50.744Z,68.71
2017-02-04T11:43:56.975Z,68.71
2017-02-04T11:45:01.181Z,68.9
2017-02-04T11:46:06.393Z,68.56
2017-02-04T11:47:12.569Z,68.94
2017-02-04T11:48:18.749Z,68.75
2017-02-04T11:49:24.917Z,69.42
2017-02-04T11:50:30.115Z,69.23
2017-02-04T11:51:35.349Z,68.94
2017-02-04T11:52:41.583Z,68.46
2017-02-04T11:53:47.749Z,68.46
2017-02-04T11:54:52.950Z,68.56
2017-02-04T11:55:58.162Z,67.99
2017-02-04T11:57:03.379Z,68.08
2017-02-04T11:58:09.567Z,68.37
2017-02-04T11:59:14.774Z,69.19
2017-02-04T12:00:19.100Z,69.19
2017-02-04T12:01:25.268Z,69.32
2017-02-04T12:02:31.449Z,68.18
2017-02-04T12:03:36.653Z,68.37
2017-02-04T12:04:41.916Z,68.56
2017-02-04T12:05:48.059Z,68.65
2017-02-04T12:06:53.312Z,68.65
2017-02-04T12:07:59.442Z,68.94
2017-02-04T12:09:05.610Z,68.18
2017-02-04T12:10:10.820Z,67.32
2017-02-04T12:11:16.040Z,67.32
2017-02-04T12:12:22.301Z,66.94
2017-02-04T12:13:28.499Z,67.13
2017-02-04T12:14:31.812Z,66.46
2017-02-04T12:15:37.988Z,67.32
2017-02-04T12:16:43.165Z,67.41
2017-02-04T12:17:48.480Z,67.22
2017-02-04T12:18:54.642Z,67.41
2017-02-04T12:20:00.920Z,66.94
2017-02-04T12:21:07.121Z,66.37
2017-02-04T12:22:11.390Z,67.41
2017-02-04T12:23:17.600Z,67.41
2017-02-04T12:24:23.768Z,67.22
2017-02-04T12:25:28.969Z,67.61
2017-02-04T12:26:33.210Z,68.18
2017-02-04T12:27:38.461Z,67.8
2017-02-04T12:28:44.594Z,67.99
2017-02-04T12:29:50.777Z,67.7
2017-02-04T12:30:55.004Z,67.32
2017-02-04T12:32:01.179Z,67.41
2017-02-04T12:33:07.349Z,67.8
2017-02-04T12:34:13.527Z,68.08
2017-02-04T12:35:17.736Z,67.51
2017-02-04T12:36:23.031Z,67.41
2017-02-04T12:37:29.189Z,66.75
2017-02-04T12:38:35.357Z,67.13
2017-02-04T12:39:40.574Z,67.51
2017-02-04T12:40:46.766Z,67.51
2017-02-04T12:41:51.977Z,67.7
2017-02-04T12:42:56.214Z,68.08
2017-02-04T12:44:02.439Z,68.08
2017-02-04T12:45:06.691Z,69.04
2017-02-04T12:46:12.870Z,68.46
2017-02-04T12:47:18.075Z,68.27
2017-02-04T12:48:23.295Z,67.7
2017-02-04T12:49:28.489Z,67.89
2017-02-04T12:50:34.666Z,67.99
2017-02-04T12:51:38.878Z,67.8
2017-02-04T12:52:44.078Z,67.99
2017-02-04T12:53:48.293Z,67.99
2017-02-04T12:54:52.493Z,68.18
2017-02-04T12:55:58.663Z,69.32
2017-02-04T12:57:04.831Z,69.29
2017-02-04T12:58:10.029Z,69.1
2017-02-04T12:59:13.330Z,69
2017-02-04T13:00:19.476Z,69
2017-02-04T13:01:24.668Z,69.48
2017-02-04T13:02:30.845Z,69.38
2017-02-04T13:03:36.052Z,69.32
2017-02-04T13:04:42.269Z,69.51
2017-02-04T13:05:46.506Z,69.7
2017-02-04T13:06:51.686Z,69.6
2017-02-04T13:07:56.858Z,69.32
2017-02-04T13:09:03.047Z,68.65
2017-02-04T13:10:09.201Z,68.18
2017-02-04T13:11:14.412Z,67.89
2017-02-04T13:12:20.580Z,67.99
2017-02-04T13:13:25.763Z,68.56
2017-02-04T13:14:31.946Z,68.37
2017-02-04T13:15:38.166Z,68.18
2017-02-04T13:16:44.337Z,67.89
2017-02-04T13:17:49.580Z,67.8
2017-02-04T13:18:53.788Z,67.22
2017-02-04T13:19:58.997Z,67.41
2017-02-04T13:21:05.172Z,67.61
2017-02-04T13:22:10.380Z,67.61
2017-02-04T13:23:15.593Z,67.13
2017-02-04T13:24:20.796Z,67.41
2017-02-04T13:25:25.976Z,66.85
2017-02-04T13:26:31.156Z,66.75
2017-02-04T13:27:37.335Z,67.13
2017-02-04T13:28:42.544Z,67.32
2017-02-04T13:29:48.726Z,67.7
2017-02-04T13:30:54.907Z,67.61
2017-02-04T13:32:00.110Z,67.41
2017-02-04T13:33:04.340Z,67.61
2017-02-04T13:34:10.511Z,67.29
2017-02-04T13:35:14.744Z,68.08
2017-02-04T13:36:20.914Z,67.86
2017-02-04T13:37:27.085Z,68.43
2017-02-04T13:38:32.298Z,67.8
2017-02-04T13:39:38.494Z,68.05
2017-02-04T13:40:43.708Z,67.76
2017-02-04T13:41:49.913Z,67.41
2017-02-04T13:42:54.147Z,67.29
2017-02-04T13:44:00.339Z,67.8
2017-02-04T13:45:06.446Z,67.95
2017-02-04T13:46:12.814Z,67.57
2017-02-04T13:47:17.988Z,67.8
2017-02-04T13:48:24.172Z,67.1
2017-02-04T13:49:29.485Z,67.19
2017-02-04T13:50:34.593Z,66.94
2017-02-04T13:51:40.821Z,67.38
2017-02-04T13:52:46.989Z,67.32
2017-02-04T13:53:53.177Z,67.1
2017-02-04T13:54:59.366Z,67.29
2017-02-04T13:56:04.568Z,67.38
2017-02-04T13:57:09.749Z,68.15
2017-02-04T13:58:14.919Z,67.86
2017-02-04T13:59:21.093Z,67.57
2017-02-04T14:00:26.362Z,67.57
2017-02-04T14:01:31.573Z,67.38
2017-02-04T14:02:37.751Z,67.57
2017-02-04T14:03:42.952Z,67.76
2017-02-04T14:04:48.156Z,68.43
2017-02-04T14:05:52.404Z,67.86
2017-02-04T14:06:56.716Z,67.86